sensor_id;sensor_type;location;lat;lon;timestamp;P1;durP1;ratioP1;P2;durP2;ratioP2
7365;SDS011;3723;52.220;8.792;2023-11-19T00:00:08;6.40;;;1.10;;
7365;SDS011;3723;52.220;8.792;2023-11-19T00:02:37;6.20;;;0.90;;
7365;SDS011;3723;52.220;8.792;2023-11-19T00:05:04;7.53;;;1.10;;
7365;SDS011;3723;52.220;8.792;2023-11-19T00:07:34;6.50;;;1.00;;
7365;SDS011;3723;52.220;8.792;2023-11-19T00:10:01;6.33;;;1.00;;
7365;SDS011;3723;52.220;8.792;2023-11-19T00:12:36;6.83;;;1.00;;
7365;SDS011;3723;52.220;8.792;2023-11-19T00:15:03;6.23;;;0.93;;
7365;SDS011;3723;52.220;8.792;2023-11-19T00:17:33;6.47;;;1.00;;
7365;SDS011;3723;52.220;8.792;2023-11-19T00:20:00;6.70;;;0.80;;
7365;SDS011;3723;52.220;8.792;2023-11-19T00:22:30;6.53;;;1.00;;
7365;SDS011;3723;52.220;8.792;2023-11-19T00:24:57;6.53;;;1.20;;
7365;SDS011;3723;52.220;8.792;2023-11-19T00:27:26;6.40;;;0.90;;
7365;SDS011;3723;52.220;8.792;2023-11-19T00:29:53;6.30;;;0.90;;
7365;SDS011;3723;52.220;8.792;2023-11-19T00:32:20;6.50;;;1.17;;
7365;SDS011;3723;52.220;8.792;2023-11-19T00:34:49;6.60;;;1.00;;
7365;SDS011;3723;52.220;8.792;2023-11-19T00:37:16;6.80;;;1.10;;
7365;SDS011;3723;52.220;8.792;2023-11-19T00:39:43;6.40;;;0.97;;
7365;SDS011;3723;52.220;8.792;2023-11-19T00:42:11;6.37;;;1.00;;
7365;SDS011;3723;52.220;8.792;2023-11-19T00:44:40;6.83;;;1.10;;
7365;SDS011;3723;52.220;8.792;2023-11-19T00:47:09;6.00;;;0.80;;
7365;SDS011;3723;52.220;8.792;2023-11-19T00:49:36;6.17;;;0.90;;
7365;SDS011;3723;52.220;8.792;2023-11-19T00:52:04;6.23;;;0.70;;
7365;SDS011;3723;52.220;8.792;2023-11-19T00:54:32;6.93;;;1.17;;
7365;SDS011;3723;52.220;8.792;2023-11-19T00:57:00;6.30;;;0.90;;
7365;SDS011;3723;52.220;8.792;2023-11-19T00:59:27;6.10;;;0.80;;
7365;SDS011;3723;52.220;8.792;2023-11-19T01:01:55;6.43;;;0.80;;
7365;SDS011;3723;52.220;8.792;2023-11-19T01:04:22;6.00;;;0.80;;
7365;SDS011;3723;52.220;8.792;2023-11-19T01:06:49;6.87;;;0.80;;
7365;SDS011;3723;52.220;8.792;2023-11-19T01:09:17;5.90;;;0.70;;
7365;SDS011;3723;52.220;8.792;2023-11-19T01:11:44;6.10;;;0.80;;
7365;SDS011;3723;52.220;8.792;2023-11-19T01:14:11;5.90;;;0.80;;
7365;SDS011;3723;52.220;8.792;2023-11-19T01:16:38;6.00;;;0.80;;
7365;SDS011;3723;52.220;8.792;2023-11-19T01:19:05;7.17;;;0.73;;
7365;SDS011;3723;52.220;8.792;2023-11-19T01:21:33;6.17;;;0.70;;
7365;SDS011;3723;52.220;8.792;2023-11-19T01:24:00;6.20;;;0.80;;
7365;SDS011;3723;52.220;8.792;2023-11-19T01:26:30;6.10;;;1.00;;
7365;SDS011;3723;52.220;8.792;2023-11-19T01:28:58;6.30;;;1.00;;
7365;SDS011;3723;52.220;8.792;2023-11-19T01:31:26;6.40;;;0.90;;
7365;SDS011;3723;52.220;8.792;2023-11-19T01:33:53;6.77;;;1.00;;
7365;SDS011;3723;52.220;8.792;2023-11-19T01:36:22;6.90;;;1.03;;
7365;SDS011;3723;52.220;8.792;2023-11-19T01:38:49;5.93;;;0.73;;
7365;SDS011;3723;52.220;8.792;2023-11-19T01:41:16;6.00;;;0.80;;
7365;SDS011;3723;52.220;8.792;2023-11-19T01:43:45;6.90;;;1.20;;
7365;SDS011;3723;52.220;8.792;2023-11-19T01:46:12;6.10;;;0.80;;
7365;SDS011;3723;52.220;8.792;2023-11-19T01:48:41;6.47;;;0.90;;
7365;SDS011;3723;52.220;8.792;2023-11-19T01:51:11;6.07;;;0.80;;
7365;SDS011;3723;52.220;8.792;2023-11-19T01:53:42;8.20;;;0.77;;
7365;SDS011;3723;52.220;8.792;2023-11-19T01:59:36;7.00;;;1.00;;
7365;SDS011;3723;52.220;8.792;2023-11-19T02:02:04;7.10;;;1.30;;
7365;SDS011;3723;52.220;8.792;2023-11-19T02:04:32;7.40;;;1.20;;
7365;SDS011;3723;52.220;8.792;2023-11-19T02:07:00;6.60;;;1.10;;
7365;SDS011;3723;52.220;8.792;2023-11-19T02:09:27;9.17;;;1.73;;
7365;SDS011;3723;52.220;8.792;2023-11-19T02:11:55;7.80;;;1.23;;
7365;SDS011;3723;52.220;8.792;2023-11-19T02:14:22;8.00;;;1.80;;
7365;SDS011;3723;52.220;8.792;2023-11-19T02:16:53;6.90;;;1.43;;
7365;SDS011;3723;52.220;8.792;2023-11-19T02:19:20;7.27;;;1.70;;
7365;SDS011;3723;52.220;8.792;2023-11-19T02:21:48;7.13;;;1.33;;
7365;SDS011;3723;52.220;8.792;2023-11-19T02:24:15;29.93;;;3.40;;
7365;SDS011;3723;52.220;8.792;2023-11-19T02:26:50;7.67;;;1.57;;
7365;SDS011;3723;52.220;8.792;2023-11-19T02:29:26;7.57;;;1.63;;
7365;SDS011;3723;52.220;8.792;2023-11-19T02:31:53;6.77;;;1.37;;
7365;SDS011;3723;52.220;8.792;2023-11-19T02:34:21;7.77;;;1.53;;
7365;SDS011;3723;52.220;8.792;2023-11-19T02:36:49;8.37;;;1.90;;
7365;SDS011;3723;52.220;8.792;2023-11-19T02:39:23;8.50;;;1.80;;
7365;SDS011;3723;52.220;8.792;2023-11-19T02:41:51;7.50;;;1.77;;
7365;SDS011;3723;52.220;8.792;2023-11-19T02:44:18;7.30;;;1.70;;
7365;SDS011;3723;52.220;8.792;2023-11-19T02:46:47;9.60;;;1.53;;
7365;SDS011;3723;52.220;8.792;2023-11-19T02:49:14;7.80;;;2.30;;
7365;SDS011;3723;52.220;8.792;2023-11-19T02:51:43;8.10;;;1.50;;
7365;SDS011;3723;52.220;8.792;2023-11-19T02:54:12;8.27;;;2.13;;
7365;SDS011;3723;52.220;8.792;2023-11-19T02:56:42;9.50;;;2.63;;
7365;SDS011;3723;52.220;8.792;2023-11-19T02:59:22;10.03;;;2.00;;
7365;SDS011;3723;52.220;8.792;2023-11-19T03:01:54;8.03;;;2.03;;
7365;SDS011;3723;52.220;8.792;2023-11-19T03:04:21;11.80;;;2.97;;
7365;SDS011;3723;52.220;8.792;2023-11-19T03:06:48;8.23;;;2.27;;
7365;SDS011;3723;52.220;8.792;2023-11-19T03:09:19;8.43;;;2.60;;
7365;SDS011;3723;52.220;8.792;2023-11-19T03:11:47;11.70;;;3.27;;
7365;SDS011;3723;52.220;8.792;2023-11-19T03:14:15;9.63;;;3.13;;
7365;SDS011;3723;52.220;8.792;2023-11-19T03:16:50;9.00;;;2.40;;
7365;SDS011;3723;52.220;8.792;2023-11-19T03:19:19;9.10;;;2.60;;
7365;SDS011;3723;52.220;8.792;2023-11-19T03:21:47;9.67;;;2.77;;
7365;SDS011;3723;52.220;8.792;2023-11-19T03:24:14;10.60;;;3.40;;
7365;SDS011;3723;52.220;8.792;2023-11-19T03:26:48;11.70;;;3.53;;
7365;SDS011;3723;52.220;8.792;2023-11-19T03:29:16;13.57;;;3.47;;
7365;SDS011;3723;52.220;8.792;2023-11-19T03:31:43;10.70;;;3.47;;
7365;SDS011;3723;52.220;8.792;2023-11-19T03:34:10;13.40;;;4.20;;
7365;SDS011;3723;52.220;8.792;2023-11-19T03:36:39;16.10;;;5.40;;
7365;SDS011;3723;52.220;8.792;2023-11-19T03:39:06;11.00;;;3.83;;
7365;SDS011;3723;52.220;8.792;2023-11-19T03:41:33;9.07;;;2.63;;
7365;SDS011;3723;52.220;8.792;2023-11-19T03:44:12;12.00;;;4.40;;
7365;SDS011;3723;52.220;8.792;2023-11-19T03:46:39;11.60;;;4.60;;
7365;SDS011;3723;52.220;8.792;2023-11-19T03:49:09;13.67;;;4.67;;
7365;SDS011;3723;52.220;8.792;2023-11-19T03:51:39;12.53;;;4.40;;
7365;SDS011;3723;52.220;8.792;2023-11-19T03:54:06;11.03;;;4.10;;
7365;SDS011;3723;52.220;8.792;2023-11-19T03:56:36;10.93;;;3.90;;
7365;SDS011;3723;52.220;8.792;2023-11-19T03:59:03;16.73;;;5.80;;
7365;SDS011;3723;52.220;8.792;2023-11-19T04:01:30;14.43;;;6.03;;
7365;SDS011;3723;52.220;8.792;2023-11-19T04:03:57;16.83;;;6.93;;
7365;SDS011;3723;52.220;8.792;2023-11-19T04:06:25;14.80;;;5.93;;
7365;SDS011;3723;52.220;8.792;2023-11-19T04:08:54;15.37;;;4.67;;
7365;SDS011;3723;52.220;8.792;2023-11-19T04:11:21;17.70;;;5.13;;
7365;SDS011;3723;52.220;8.792;2023-11-19T04:13:48;13.27;;;4.83;;
7365;SDS011;3723;52.220;8.792;2023-11-19T04:16:15;17.03;;;4.57;;
7365;SDS011;3723;52.220;8.792;2023-11-19T04:18:42;14.63;;;4.80;;
7365;SDS011;3723;52.220;8.792;2023-11-19T04:21:09;12.17;;;4.10;;
7365;SDS011;3723;52.220;8.792;2023-11-19T04:23:36;19.03;;;3.97;;
7365;SDS011;3723;52.220;8.792;2023-11-19T04:26:05;13.90;;;4.43;;
7365;SDS011;3723;52.220;8.792;2023-11-19T04:28:33;10.03;;;3.17;;
7365;SDS011;3723;52.220;8.792;2023-11-19T04:31:01;13.30;;;4.57;;
7365;SDS011;3723;52.220;8.792;2023-11-19T04:33:28;12.77;;;3.83;;
7365;SDS011;3723;52.220;8.792;2023-11-19T04:35:55;11.30;;;3.80;;
7365;SDS011;3723;52.220;8.792;2023-11-19T04:38:22;13.40;;;4.70;;
7365;SDS011;3723;52.220;8.792;2023-11-19T04:40:51;12.43;;;4.10;;
7365;SDS011;3723;52.220;8.792;2023-11-19T04:43:20;11.53;;;4.60;;
7365;SDS011;3723;52.220;8.792;2023-11-19T04:45:48;13.43;;;4.77;;
7365;SDS011;3723;52.220;8.792;2023-11-19T04:48:15;10.83;;;4.00;;
7365;SDS011;3723;52.220;8.792;2023-11-19T04:50:42;12.83;;;2.80;;
7365;SDS011;3723;52.220;8.792;2023-11-19T04:53:09;16.47;;;4.43;;
7365;SDS011;3723;52.220;8.792;2023-11-19T04:55:36;12.60;;;4.27;;
7365;SDS011;3723;52.220;8.792;2023-11-19T04:58:03;10.23;;;3.50;;
7365;SDS011;3723;52.220;8.792;2023-11-19T05:04:08;9.80;;;2.70;;
7365;SDS011;3723;52.220;8.792;2023-11-19T05:06:36;11.23;;;3.63;;
7365;SDS011;3723;52.220;8.792;2023-11-19T05:09:03;9.57;;;3.20;;
7365;SDS011;3723;52.220;8.792;2023-11-19T05:11:34;14.33;;;4.30;;
7365;SDS011;3723;52.220;8.792;2023-11-19T05:14:02;14.80;;;4.43;;
7365;SDS011;3723;52.220;8.792;2023-11-19T05:16:32;10.33;;;3.50;;
7365;SDS011;3723;52.220;8.792;2023-11-19T05:19:00;10.30;;;3.23;;
7365;SDS011;3723;52.220;8.792;2023-11-19T05:21:28;18.73;;;3.80;;
7365;SDS011;3723;52.220;8.792;2023-11-19T05:23:55;13.20;;;3.57;;
7365;SDS011;3723;52.220;8.792;2023-11-19T05:26:23;12.23;;;3.00;;
7365;SDS011;3723;52.220;8.792;2023-11-19T05:28:50;12.70;;;2.20;;
7365;SDS011;3723;52.220;8.792;2023-11-19T05:31:20;16.07;;;2.63;;
7365;SDS011;3723;52.220;8.792;2023-11-19T05:33:47;8.63;;;2.13;;
7365;SDS011;3723;52.220;8.792;2023-11-19T05:36:14;9.80;;;2.67;;
7365;SDS011;3723;52.220;8.792;2023-11-19T05:38:43;11.07;;;2.80;;
7365;SDS011;3723;52.220;8.792;2023-11-19T05:41:10;20.17;;;3.10;;
7365;SDS011;3723;52.220;8.792;2023-11-19T05:43:37;15.23;;;2.73;;
7365;SDS011;3723;52.220;8.792;2023-11-19T05:46:05;13.60;;;2.90;;
7365;SDS011;3723;52.220;8.792;2023-11-19T05:48:32;14.90;;;4.80;;
7365;SDS011;3723;52.220;8.792;2023-11-19T05:51:04;15.23;;;2.40;;
7365;SDS011;3723;52.220;8.792;2023-11-19T05:53:38;13.73;;;2.00;;
7365;SDS011;3723;52.220;8.792;2023-11-19T05:56:08;13.63;;;1.80;;
7365;SDS011;3723;52.220;8.792;2023-11-19T05:58:35;21.73;;;3.70;;
7365;SDS011;3723;52.220;8.792;2023-11-19T06:01:04;11.73;;;2.53;;
7365;SDS011;3723;52.220;8.792;2023-11-19T06:03:34;10.90;;;1.73;;
7365;SDS011;3723;52.220;8.792;2023-11-19T06:06:01;15.20;;;2.03;;
7365;SDS011;3723;52.220;8.792;2023-11-19T06:08:30;16.60;;;3.60;;
7365;SDS011;3723;52.220;8.792;2023-11-19T06:10:57;12.73;;;1.67;;
7365;SDS011;3723;52.220;8.792;2023-11-19T06:13:27;15.87;;;2.37;;
7365;SDS011;3723;52.220;8.792;2023-11-19T06:15:56;9.07;;;1.60;;
7365;SDS011;3723;52.220;8.792;2023-11-19T06:18:22;19.30;;;2.60;;
7365;SDS011;3723;52.220;8.792;2023-11-19T06:20:50;15.50;;;2.03;;
7365;SDS011;3723;52.220;8.792;2023-11-19T06:23:17;20.33;;;1.90;;
7365;SDS011;3723;52.220;8.792;2023-11-19T06:25:44;25.53;;;3.13;;
7365;SDS011;3723;52.220;8.792;2023-11-19T06:28:11;9.60;;;1.80;;
7365;SDS011;3723;52.220;8.792;2023-11-19T06:30:39;12.43;;;1.47;;
7365;SDS011;3723;52.220;8.792;2023-11-19T06:33:06;12.03;;;2.33;;
7365;SDS011;3723;52.220;8.792;2023-11-19T06:35:33;13.83;;;2.60;;
7365;SDS011;3723;52.220;8.792;2023-11-19T06:38:02;14.63;;;1.80;;
7365;SDS011;3723;52.220;8.792;2023-11-19T06:40:29;8.93;;;2.03;;
7365;SDS011;3723;52.220;8.792;2023-11-19T06:42:57;15.53;;;2.07;;
7365;SDS011;3723;52.220;8.792;2023-11-19T06:45:24;17.00;;;2.47;;
7365;SDS011;3723;52.220;8.792;2023-11-19T06:47:52;16.77;;;2.13;;
7365;SDS011;3723;52.220;8.792;2023-11-19T06:50:19;20.90;;;2.00;;
7365;SDS011;3723;52.220;8.792;2023-11-19T06:52:46;16.27;;;2.73;;
7365;SDS011;3723;52.220;8.792;2023-11-19T06:55:13;12.70;;;1.97;;
7365;SDS011;3723;52.220;8.792;2023-11-19T06:57:41;19.83;;;1.80;;
7365;SDS011;3723;52.220;8.792;2023-11-19T07:00:09;18.27;;;2.73;;
7365;SDS011;3723;52.220;8.792;2023-11-19T07:02:36;13.07;;;1.87;;
7365;SDS011;3723;52.220;8.792;2023-11-19T07:05:06;22.27;;;3.10;;
7365;SDS011;3723;52.220;8.792;2023-11-19T07:07:33;18.07;;;2.50;;
7365;SDS011;3723;52.220;8.792;2023-11-19T07:10:00;21.13;;;3.03;;
7365;SDS011;3723;52.220;8.792;2023-11-19T07:12:29;19.37;;;2.30;;
7365;SDS011;3723;52.220;8.792;2023-11-19T07:15:03;9.90;;;1.50;;
7365;SDS011;3723;52.220;8.792;2023-11-19T07:17:31;22.60;;;3.20;;
7365;SDS011;3723;52.220;8.792;2023-11-19T07:20:00;19.93;;;3.60;;
7365;SDS011;3723;52.220;8.792;2023-11-19T07:22:30;16.20;;;3.03;;
7365;SDS011;3723;52.220;8.792;2023-11-19T07:24:58;34.10;;;4.93;;
7365;SDS011;3723;52.220;8.792;2023-11-19T07:27:25;17.70;;;2.20;;
7365;SDS011;3723;52.220;8.792;2023-11-19T07:29:52;23.70;;;2.37;;
7365;SDS011;3723;52.220;8.792;2023-11-19T07:32:19;14.43;;;2.57;;
7365;SDS011;3723;52.220;8.792;2023-11-19T07:34:46;9.93;;;1.57;;
7365;SDS011;3723;52.220;8.792;2023-11-19T07:37:14;18.40;;;4.00;;
7365;SDS011;3723;52.220;8.792;2023-11-19T07:39:43;19.10;;;2.60;;
7365;SDS011;3723;52.220;8.792;2023-11-19T07:42:11;20.07;;;2.50;;
7365;SDS011;3723;52.220;8.792;2023-11-19T07:44:38;16.40;;;2.10;;
7365;SDS011;3723;52.220;8.792;2023-11-19T07:47:06;16.43;;;1.97;;
7365;SDS011;3723;52.220;8.792;2023-11-19T07:49:35;18.23;;;2.20;;
7365;SDS011;3723;52.220;8.792;2023-11-19T07:52:02;13.97;;;1.67;;
7365;SDS011;3723;52.220;8.792;2023-11-19T07:54:30;16.87;;;2.10;;
7365;SDS011;3723;52.220;8.792;2023-11-19T07:56:59;18.63;;;2.80;;
7365;SDS011;3723;52.220;8.792;2023-11-19T07:59:26;15.80;;;1.83;;
7365;SDS011;3723;52.220;8.792;2023-11-19T08:01:53;17.30;;;2.17;;
7365;SDS011;3723;52.220;8.792;2023-11-19T08:04:20;19.40;;;2.63;;
7365;SDS011;3723;52.220;8.792;2023-11-19T08:06:47;13.23;;;2.33;;
7365;SDS011;3723;52.220;8.792;2023-11-19T08:09:14;19.03;;;2.93;;
7365;SDS011;3723;52.220;8.792;2023-11-19T08:11:41;23.67;;;2.40;;
7365;SDS011;3723;52.220;8.792;2023-11-19T08:14:09;19.07;;;3.33;;
7365;SDS011;3723;52.220;8.792;2023-11-19T08:16:37;19.10;;;2.80;;
7365;SDS011;3723;52.220;8.792;2023-11-19T08:19:05;13.30;;;2.60;;
7365;SDS011;3723;52.220;8.792;2023-11-19T08:21:33;17.70;;;2.20;;
7365;SDS011;3723;52.220;8.792;2023-11-19T08:24:00;13.83;;;2.47;;
7365;SDS011;3723;52.220;8.792;2023-11-19T08:26:28;21.50;;;4.17;;
7365;SDS011;3723;52.220;8.792;2023-11-19T08:28:55;20.50;;;3.50;;
7365;SDS011;3723;52.220;8.792;2023-11-19T08:31:25;16.23;;;3.10;;
7365;SDS011;3723;52.220;8.792;2023-11-19T08:33:52;15.87;;;2.90;;
7365;SDS011;3723;52.220;8.792;2023-11-19T08:36:19;17.67;;;3.17;;
7365;SDS011;3723;52.220;8.792;2023-11-19T08:41:39;18.77;;;2.77;;
7365;SDS011;3723;52.220;8.792;2023-11-19T08:44:07;19.17;;;2.10;;
7365;SDS011;3723;52.220;8.792;2023-11-19T08:46:36;21.67;;;3.10;;
7365;SDS011;3723;52.220;8.792;2023-11-19T08:49:05;17.53;;;3.13;;
7365;SDS011;3723;52.220;8.792;2023-11-19T08:51:34;19.73;;;3.50;;
7365;SDS011;3723;52.220;8.792;2023-11-19T08:54:01;16.93;;;3.53;;
7365;SDS011;3723;52.220;8.792;2023-11-19T08:56:29;13.20;;;1.97;;
7365;SDS011;3723;52.220;8.792;2023-11-19T08:59:00;21.00;;;2.50;;
7365;SDS011;3723;52.220;8.792;2023-11-19T09:01:27;18.30;;;1.93;;
7365;SDS011;3723;52.220;8.792;2023-11-19T09:03:56;31.10;;;5.03;;
7365;SDS011;3723;52.220;8.792;2023-11-19T09:06:23;12.37;;;2.70;;
7365;SDS011;3723;52.220;8.792;2023-11-19T09:08:50;21.63;;;3.23;;
7365;SDS011;3723;52.220;8.792;2023-11-19T09:11:17;20.93;;;2.67;;
7365;SDS011;3723;52.220;8.792;2023-11-19T09:13:45;16.70;;;2.63;;
7365;SDS011;3723;52.220;8.792;2023-11-19T09:16:18;15.83;;;2.37;;
7365;SDS011;3723;52.220;8.792;2023-11-19T09:18:46;17.77;;;2.00;;
7365;SDS011;3723;52.220;8.792;2023-11-19T09:21:23;12.93;;;2.13;;
7365;SDS011;3723;52.220;8.792;2023-11-19T09:23:51;18.40;;;2.57;;
7365;SDS011;3723;52.220;8.792;2023-11-19T09:26:19;18.60;;;3.63;;
7365;SDS011;3723;52.220;8.792;2023-11-19T09:28:47;28.80;;;3.37;;
7365;SDS011;3723;52.220;8.792;2023-11-19T09:31:14;18.37;;;2.67;;
7365;SDS011;3723;52.220;8.792;2023-11-19T09:33:42;25.87;;;1.90;;
7365;SDS011;3723;52.220;8.792;2023-11-19T09:36:11;22.57;;;3.87;;
7365;SDS011;3723;52.220;8.792;2023-11-19T09:38:41;18.23;;;2.40;;
7365;SDS011;3723;52.220;8.792;2023-11-19T09:41:09;17.33;;;2.53;;
7365;SDS011;3723;52.220;8.792;2023-11-19T09:43:42;19.50;;;2.77;;
7365;SDS011;3723;52.220;8.792;2023-11-19T09:46:09;24.13;;;2.97;;
7365;SDS011;3723;52.220;8.792;2023-11-19T09:48:37;27.90;;;3.23;;
7365;SDS011;3723;52.220;8.792;2023-11-19T09:51:05;19.20;;;3.70;;
7365;SDS011;3723;52.220;8.792;2023-11-19T09:53:33;19.87;;;2.00;;
7365;SDS011;3723;52.220;8.792;2023-11-19T09:56:05;21.17;;;3.17;;
7365;SDS011;3723;52.220;8.792;2023-11-19T09:58:34;24.27;;;5.20;;
7365;SDS011;3723;52.220;8.792;2023-11-19T10:01:02;23.10;;;2.93;;
7365;SDS011;3723;52.220;8.792;2023-11-19T10:03:33;22.50;;;2.23;;
7365;SDS011;3723;52.220;8.792;2023-11-19T10:06:03;28.27;;;4.57;;
7365;SDS011;3723;52.220;8.792;2023-11-19T10:08:30;18.13;;;3.90;;
7365;SDS011;3723;52.220;8.792;2023-11-19T10:10:57;22.10;;;3.87;;
7365;SDS011;3723;52.220;8.792;2023-11-19T10:13:27;15.37;;;3.23;;
7365;SDS011;3723;52.220;8.792;2023-11-19T10:15:55;20.93;;;2.83;;
7365;SDS011;3723;52.220;8.792;2023-11-19T10:18:24;18.27;;;4.03;;
7365;SDS011;3723;52.220;8.792;2023-11-19T10:20:52;17.53;;;2.80;;
7365;SDS011;3723;52.220;8.792;2023-11-19T10:23:20;18.30;;;3.23;;
7365;SDS011;3723;52.220;8.792;2023-11-19T10:25:47;17.23;;;2.53;;
7365;SDS011;3723;52.220;8.792;2023-11-19T10:28:14;10.87;;;2.40;;
7365;SDS011;3723;52.220;8.792;2023-11-19T10:30:44;19.63;;;1.80;;
7365;SDS011;3723;52.220;8.792;2023-11-19T10:33:11;16.80;;;2.20;;
7365;SDS011;3723;52.220;8.792;2023-11-19T10:35:51;11.20;;;1.57;;
7365;SDS011;3723;52.220;8.792;2023-11-19T10:38:21;15.30;;;2.50;;
7365;SDS011;3723;52.220;8.792;2023-11-19T10:40:50;19.00;;;2.23;;
7365;SDS011;3723;52.220;8.792;2023-11-19T10:43:19;22.57;;;5.67;;
7365;SDS011;3723;52.220;8.792;2023-11-19T10:45:50;17.10;;;2.80;;
7365;SDS011;3723;52.220;8.792;2023-11-19T10:48:17;14.83;;;2.13;;
7365;SDS011;3723;52.220;8.792;2023-11-19T10:50:48;22.10;;;3.00;;
7365;SDS011;3723;52.220;8.792;2023-11-19T10:53:20;15.20;;;2.87;;
7365;SDS011;3723;52.220;8.792;2023-11-19T10:55:51;18.10;;;3.03;;
7365;SDS011;3723;52.220;8.792;2023-11-19T10:58:21;16.40;;;2.63;;
7365;SDS011;3723;52.220;8.792;2023-11-19T11:00:51;21.43;;;2.57;;
7365;SDS011;3723;52.220;8.792;2023-11-19T11:03:20;21.17;;;3.90;;
7365;SDS011;3723;52.220;8.792;2023-11-19T11:05:50;14.57;;;2.10;;
7365;SDS011;3723;52.220;8.792;2023-11-19T11:08:18;20.40;;;3.10;;
7365;SDS011;3723;52.220;8.792;2023-11-19T11:10:47;20.67;;;2.53;;
7365;SDS011;3723;52.220;8.792;2023-11-19T11:13:22;25.27;;;3.30;;
7365;SDS011;3723;52.220;8.792;2023-11-19T11:15:51;16.73;;;2.40;;
7365;SDS011;3723;52.220;8.792;2023-11-19T11:18:19;23.37;;;2.50;;
7365;SDS011;3723;52.220;8.792;2023-11-19T11:20:47;28.47;;;2.63;;
7365;SDS011;3723;52.220;8.792;2023-11-19T11:23:25;19.20;;;2.23;;
7365;SDS011;3723;52.220;8.792;2023-11-19T11:26:19;23.33;;;2.47;;
7365;SDS011;3723;52.220;8.792;2023-11-19T11:29:09;16.60;;;2.47;;
7365;SDS011;3723;52.220;8.792;2023-11-19T11:31:47;20.13;;;3.30;;
7365;SDS011;3723;52.220;8.792;2023-11-19T11:34:38;17.87;;;2.10;;
7365;SDS011;3723;52.220;8.792;2023-11-19T11:37:17;16.30;;;3.10;;
7365;SDS011;3723;52.220;8.792;2023-11-19T11:39:49;25.53;;;2.77;;
7365;SDS011;3723;52.220;8.792;2023-11-19T11:45:04;14.20;;;2.60;;
7365;SDS011;3723;52.220;8.792;2023-11-19T11:50:51;17.87;;;2.20;;
7365;SDS011;3723;52.220;8.792;2023-11-19T11:53:20;16.40;;;1.87;;
7365;SDS011;3723;52.220;8.792;2023-11-19T11:55:55;21.03;;;3.20;;
7365;SDS011;3723;52.220;8.792;2023-11-19T11:58:30;19.03;;;2.07;;
7365;SDS011;3723;52.220;8.792;2023-11-19T12:01:03;16.23;;;2.03;;
7365;SDS011;3723;52.220;8.792;2023-11-19T12:03:33;12.63;;;2.80;;
7365;SDS011;3723;52.220;8.792;2023-11-19T12:06:00;31.30;;;3.80;;
7365;SDS011;3723;52.220;8.792;2023-11-19T12:08:29;17.87;;;2.83;;
7365;SDS011;3723;52.220;8.792;2023-11-19T12:11:00;24.03;;;3.17;;
7365;SDS011;3723;52.220;8.792;2023-11-19T12:13:52;18.03;;;3.07;;
7365;SDS011;3723;52.220;8.792;2023-11-19T12:16:20;15.40;;;2.87;;
7365;SDS011;3723;52.220;8.792;2023-11-19T12:18:49;19.50;;;2.90;;
7365;SDS011;3723;52.220;8.792;2023-11-19T12:21:29;16.40;;;2.50;;
7365;SDS011;3723;52.220;8.792;2023-11-19T12:23:57;24.30;;;3.10;;
7365;SDS011;3723;52.220;8.792;2023-11-19T12:26:39;23.60;;;4.10;;
7365;SDS011;3723;52.220;8.792;2023-11-19T12:29:06;12.87;;;1.90;;
7365;SDS011;3723;52.220;8.792;2023-11-19T12:31:34;26.17;;;4.63;;
7365;SDS011;3723;52.220;8.792;2023-11-19T12:34:09;20.10;;;2.30;;
7365;SDS011;3723;52.220;8.792;2023-11-19T12:36:37;12.50;;;2.63;;
7365;SDS011;3723;52.220;8.792;2023-11-19T12:39:08;14.07;;;3.67;;
7365;SDS011;3723;52.220;8.792;2023-11-19T12:41:53;17.60;;;3.47;;
7365;SDS011;3723;52.220;8.792;2023-11-19T12:44:20;19.17;;;3.90;;
7365;SDS011;3723;52.220;8.792;2023-11-19T12:47:01;13.30;;;2.60;;
7365;SDS011;3723;52.220;8.792;2023-11-19T12:49:32;25.43;;;3.50;;
7365;SDS011;3723;52.220;8.792;2023-11-19T12:51:59;15.33;;;3.30;;
7365;SDS011;3723;52.220;8.792;2023-11-19T12:54:33;11.07;;;1.63;;
7365;SDS011;3723;52.220;8.792;2023-11-19T12:57:01;18.10;;;2.53;;
7365;SDS011;3723;52.220;8.792;2023-11-19T12:59:30;21.70;;;4.67;;
7365;SDS011;3723;52.220;8.792;2023-11-19T13:01:57;24.23;;;3.30;;
7365;SDS011;3723;52.220;8.792;2023-11-19T13:04:27;14.83;;;2.37;;
7365;SDS011;3723;52.220;8.792;2023-11-19T13:06:57;33.17;;;5.00;;
7365;SDS011;3723;52.220;8.792;2023-11-19T13:09:24;21.60;;;2.90;;
7365;SDS011;3723;52.220;8.792;2023-11-19T13:11:52;16.57;;;2.70;;
7365;SDS011;3723;52.220;8.792;2023-11-19T13:14:20;23.17;;;3.60;;
7365;SDS011;3723;52.220;8.792;2023-11-19T13:16:47;17.13;;;2.23;;
7365;SDS011;3723;52.220;8.792;2023-11-19T13:19:14;14.20;;;3.00;;
7365;SDS011;3723;52.220;8.792;2023-11-19T13:21:44;18.77;;;2.83;;
7365;SDS011;3723;52.220;8.792;2023-11-19T13:24:13;22.03;;;2.60;;
7365;SDS011;3723;52.220;8.792;2023-11-19T13:26:40;22.07;;;3.90;;
7365;SDS011;3723;52.220;8.792;2023-11-19T13:29:07;23.90;;;4.60;;
7365;SDS011;3723;52.220;8.792;2023-11-19T13:31:35;27.50;;;4.40;;
7365;SDS011;3723;52.220;8.792;2023-11-19T13:34:03;13.73;;;3.10;;
7365;SDS011;3723;52.220;8.792;2023-11-19T13:36:32;15.00;;;2.33;;
7365;SDS011;3723;52.220;8.792;2023-11-19T13:38:59;24.77;;;2.73;;
7365;SDS011;3723;52.220;8.792;2023-11-19T13:41:27;19.40;;;3.23;;
7365;SDS011;3723;52.220;8.792;2023-11-19T13:43:54;17.20;;;2.50;;
7365;SDS011;3723;52.220;8.792;2023-11-19T13:46:21;16.70;;;2.00;;
7365;SDS011;3723;52.220;8.792;2023-11-19T13:48:48;16.97;;;2.50;;
7365;SDS011;3723;52.220;8.792;2023-11-19T13:51:15;26.47;;;2.77;;
7365;SDS011;3723;52.220;8.792;2023-11-19T13:53:42;14.80;;;2.47;;
7365;SDS011;3723;52.220;8.792;2023-11-19T13:56:09;14.23;;;2.50;;
7365;SDS011;3723;52.220;8.792;2023-11-19T13:58:38;17.20;;;2.53;;
7365;SDS011;3723;52.220;8.792;2023-11-19T14:01:05;26.67;;;2.87;;
7365;SDS011;3723;52.220;8.792;2023-11-19T14:03:33;20.87;;;4.03;;
7365;SDS011;3723;52.220;8.792;2023-11-19T14:06:00;18.07;;;2.80;;
7365;SDS011;3723;52.220;8.792;2023-11-19T14:08:27;23.20;;;4.03;;
7365;SDS011;3723;52.220;8.792;2023-11-19T14:10:54;15.40;;;2.10;;
7365;SDS011;3723;52.220;8.792;2023-11-19T14:13:22;19.17;;;2.20;;
7365;SDS011;3723;52.220;8.792;2023-11-19T14:15:50;19.17;;;2.83;;
7365;SDS011;3723;52.220;8.792;2023-11-19T14:18:17;17.40;;;2.20;;
7365;SDS011;3723;52.220;8.792;2023-11-19T14:20:44;14.60;;;1.83;;
7365;SDS011;3723;52.220;8.792;2023-11-19T14:23:11;25.97;;;4.00;;
7365;SDS011;3723;52.220;8.792;2023-11-19T14:25:38;20.80;;;3.07;;
7365;SDS011;3723;52.220;8.792;2023-11-19T14:28:05;17.07;;;2.00;;
7365;SDS011;3723;52.220;8.792;2023-11-19T14:30:32;17.40;;;2.60;;
7365;SDS011;3723;52.220;8.792;2023-11-19T14:33:01;14.60;;;2.60;;
7365;SDS011;3723;52.220;8.792;2023-11-19T14:35:30;20.33;;;1.83;;
7365;SDS011;3723;52.220;8.792;2023-11-19T14:37:57;16.30;;;3.20;;
7365;SDS011;3723;52.220;8.792;2023-11-19T14:40:24;16.43;;;1.90;;
7365;SDS011;3723;52.220;8.792;2023-11-19T14:42:51;19.03;;;2.20;;
7365;SDS011;3723;52.220;8.792;2023-11-19T14:45:18;13.70;;;2.20;;
7365;SDS011;3723;52.220;8.792;2023-11-19T14:47:45;14.57;;;2.03;;
7365;SDS011;3723;52.220;8.792;2023-11-19T14:50:14;12.70;;;1.73;;
7365;SDS011;3723;52.220;8.792;2023-11-19T14:52:41;16.40;;;2.57;;
7365;SDS011;3723;52.220;8.792;2023-11-19T14:55:08;11.80;;;1.97;;
7365;SDS011;3723;52.220;8.792;2023-11-19T14:57:36;13.70;;;2.23;;
7365;SDS011;3723;52.220;8.792;2023-11-19T15:00:05;15.77;;;1.80;;
7365;SDS011;3723;52.220;8.792;2023-11-19T15:02:38;11.83;;;1.97;;
7365;SDS011;3723;52.220;8.792;2023-11-19T15:05:06;23.90;;;3.47;;
7365;SDS011;3723;52.220;8.792;2023-11-19T15:07:36;12.77;;;2.00;;
7365;SDS011;3723;52.220;8.792;2023-11-19T15:10:04;15.40;;;2.27;;
7365;SDS011;3723;52.220;8.792;2023-11-19T15:12:35;22.33;;;2.80;;
7365;SDS011;3723;52.220;8.792;2023-11-19T15:15:05;21.93;;;2.70;;
7365;SDS011;3723;52.220;8.792;2023-11-19T15:17:34;23.13;;;5.10;;
7365;SDS011;3723;52.220;8.792;2023-11-19T15:20:02;22.83;;;4.10;;
7365;SDS011;3723;52.220;8.792;2023-11-19T15:22:29;23.13;;;3.00;;
7365;SDS011;3723;52.220;8.792;2023-11-19T15:24:58;12.17;;;2.80;;
7365;SDS011;3723;52.220;8.792;2023-11-19T15:27:25;16.77;;;2.63;;
7365;SDS011;3723;52.220;8.792;2023-11-19T15:29:51;18.00;;;2.20;;